Indianola, Oklahoma
Current Conditions -  °F | °C
As of 5:53 AM on Friday 24 Oct 2014 (Local Time) from KMLC Reporting Station
Clear Clear  
Wind Chill: 54°   Ceiling: Unl
Heat Index: 54°   Visibility: 10mi
Dew Point: 51°   Wind: 3mph
Humidity: 90%   Direction: 210°SSW
Pressure: 30.14"   Gusts: NA
Location:  35.16°N, 95.77°W
Report Text: KMLC 241053Z AUTO 21003KT 10SM CLR 12/11 A3014 RMK AO2 SLP200 T01220106
Loading
Personal Weather Stations






























Interactive Weather Map
Tropical Storm Tracking
New forecast layout! Learn more

10-Day Weather Forecast

Advertisements
Track Severe Weather on mobile